createdAt,value
2022-11-15T00:00:49.303Z,81.37
2022-11-15T00:03:21.276Z,81.09
2022-11-15T00:05:48.339Z,81.75
2022-11-15T00:08:15.003Z,81.71
2022-11-15T00:10:42.015Z,81.66
2022-11-15T00:13:10.476Z,81.48
2022-11-15T00:15:37.602Z,81.96
2022-11-15T00:18:05.169Z,81.99
2022-11-15T00:20:32.383Z,81.63
2022-11-15T00:22:58.783Z,81.70
2022-11-15T00:25:25.251Z,82.11
2022-11-15T00:27:52.696Z,81.99
2022-11-15T00:30:19.075Z,81.98
2022-11-15T00:32:45.496Z,81.67
2022-11-15T00:35:11.909Z,81.77
2022-11-15T00:37:38.272Z,81.96
2022-11-15T00:40:05.152Z,81.86
2022-11-15T00:42:31.567Z,82.28
2022-11-15T00:44:58.075Z,82.39
2022-11-15T00:47:24.458Z,82.71
2022-11-15T00:49:50.859Z,82.87
2022-11-15T00:52:17.237Z,83.14
2022-11-15T00:54:43.684Z,82.83
2022-11-15T00:57:10.210Z,82.68
2022-11-15T00:59:36.687Z,82.70
2022-11-15T01:02:03.164Z,82.53
2022-11-15T01:04:29.591Z,82.27
2022-11-15T01:06:56.126Z,83.16
2022-11-15T01:09:22.837Z,83.05
2022-11-15T01:11:49.255Z,82.74
2022-11-15T01:14:15.663Z,82.65
2022-11-15T01:16:43.304Z,82.68
2022-11-15T01:19:09.690Z,82.75
2022-11-15T01:21:36.078Z,82.92
2022-11-15T01:24:02.536Z,83.10
2022-11-15T01:26:28.955Z,82.31
2022-11-15T01:28:55.375Z,82.53
2022-11-15T01:31:22.336Z,82.04
2022-11-15T01:33:49.527Z,82.34
2022-11-15T01:36:18.885Z,82.52
2022-11-15T01:38:45.541Z,81.64
2022-11-15T01:41:22.121Z,82.10
2022-11-15T01:44:18.403Z,82.08
2022-11-15T01:46:48.384Z,81.87
2022-11-15T01:49:21.823Z,81.67
2022-11-15T01:51:48.471Z,81.64
2022-11-15T01:54:18.104Z,82.96
2022-11-15T01:56:54.127Z,82.21
2022-11-15T01:59:20.937Z,81.95
2022-11-15T02:01:47.956Z,82.18
2022-11-15T02:04:17.892Z,81.49
2022-11-15T02:06:45.306Z,81.53
2022-11-15T02:09:12.634Z,81.28
2022-11-15T02:11:39.203Z,81.33
2022-11-15T02:14:07.051Z,81.56
2022-11-15T02:17:20.224Z,81.24
2022-11-15T02:20:05.478Z,81.38
2022-11-15T02:23:04.286Z,81.29
2022-11-15T02:25:36.724Z,80.95
2022-11-15T02:28:26.480Z,81.28
2022-11-15T02:31:11.806Z,81.11
2022-11-15T02:33:50.290Z,81.33
2022-11-15T02:36:29.790Z,81.66
2022-11-15T02:39:24.311Z,81.53
2022-11-15T02:41:58.431Z,80.82
2022-11-15T02:44:33.654Z,80.38
2022-11-15T02:47:14.211Z,80.17
2022-11-15T02:49:44.663Z,80.09
2022-11-15T02:52:16.626Z,79.72
2022-11-15T02:54:43.013Z,79.09
2022-11-15T02:57:17.583Z,79.27
2022-11-15T03:00:04.920Z,79.14
2022-11-15T03:02:40.095Z,79.14
2022-11-15T03:05:24.837Z,78.78
2022-11-15T03:08:02.465Z,78.86
2022-11-15T03:10:41.394Z,78.87
2022-11-15T03:13:22.534Z,79.14
2022-11-15T03:16:02.040Z,79.06
2022-11-15T03:18:45.294Z,79.46
2022-11-15T03:21:14.183Z,79.55
2022-11-15T03:23:40.957Z,79.22
2022-11-15T03:26:12.632Z,79.48
2022-11-15T03:28:48.283Z,80.18
2022-11-15T03:31:36.285Z,80.12
2022-11-15T03:34:06.896Z,79.43
2022-11-15T03:36:34.519Z,79.84
2022-11-15T03:39:06.290Z,79.94
2022-11-15T03:41:42.700Z,80.05
2022-11-15T03:44:28.051Z,80.29
2022-11-15T03:47:24.551Z,79.68
2022-11-15T03:50:00.293Z,80.73
2022-11-15T03:52:26.827Z,80.24
2022-11-15T03:54:58.142Z,80.24
2022-11-15T03:57:24.793Z,80.96
2022-11-15T03:59:51.247Z,80.43
2022-11-15T04:02:17.702Z,80.48
2022-11-15T04:04:44.182Z,80.03
2022-11-15T04:07:10.931Z,79.94
2022-11-15T04:09:57.855Z,79.93
2022-11-15T04:12:31.746Z,79.26
2022-11-15T04:15:09.463Z,79.11
2022-11-15T04:17:44.641Z,78.49
2022-11-15T04:20:34.568Z,78.51
2022-11-15T04:23:21.366Z,78.84
2022-11-15T04:25:51.104Z,78.79
2022-11-15T04:28:17.752Z,78.79
2022-11-15T04:30:44.234Z,78.07
2022-11-15T04:33:10.632Z,78.15
2022-11-15T04:35:37.168Z,78.20
2022-11-15T04:38:05.379Z,78.35
2022-11-15T04:40:31.889Z,78.28
2022-11-15T04:43:03.570Z,78.68
2022-11-15T04:45:30.963Z,78.15
2022-11-15T04:47:57.450Z,78.22
2022-11-15T04:50:23.868Z,77.72
2022-11-15T04:52:55.072Z,77.73
2022-11-15T04:55:21.547Z,77.75
2022-11-15T04:57:47.993Z,77.67
2022-11-15T05:00:17.098Z,77.03
2022-11-15T05:03:01.894Z,77.31
2022-11-15T05:05:28.437Z,77.52
2022-11-15T05:07:54.840Z,76.71
2022-11-15T05:10:21.392Z,76.77
2022-11-15T05:12:47.791Z,77.35
2022-11-15T05:15:14.217Z,77.22
2022-11-15T05:17:40.658Z,76.58
2022-11-15T05:20:07.682Z,76.72
2022-11-15T05:22:34.090Z,76.80
2022-11-15T05:25:00.575Z,76.68
2022-11-15T05:27:27.041Z,76.72
2022-11-15T05:29:53.493Z,76.07
2022-11-15T05:32:19.910Z,76.48
2022-11-15T05:34:47.390Z,76.29
2022-11-15T05:37:14.858Z,76.32
2022-11-15T05:39:41.294Z,75.90
2022-11-15T05:42:13.648Z,75.83
2022-11-15T05:44:44.653Z,75.71
2022-11-15T05:47:15.287Z,76.18
2022-11-15T05:49:45.462Z,75.89
2022-11-15T05:52:15.616Z,76.09
2022-11-15T05:54:42.408Z,75.73
2022-11-15T05:57:08.943Z,76.40
2022-11-15T05:59:36.111Z,75.96
2022-11-15T06:02:02.636Z,76.24
2022-11-15T06:04:29.217Z,76.56
2022-11-15T06:06:55.725Z,77.00
2022-11-15T06:09:22.131Z,77.81
2022-11-15T06:11:49.070Z,76.79
2022-11-15T06:14:15.544Z,76.71
2022-11-15T06:16:42.049Z,76.24
2022-11-15T06:19:08.809Z,76.20
2022-11-15T06:21:35.278Z,75.35
2022-11-15T06:24:02.228Z,75.52
2022-11-15T06:26:28.629Z,75.33
2022-11-15T06:28:55.035Z,75.43
2022-11-15T06:31:21.452Z,75.45
2022-11-15T06:33:48.126Z,74.69
2022-11-15T06:36:17.764Z,74.19
2022-11-15T06:38:45.458Z,74.23
2022-11-15T06:41:13.263Z,74.55
2022-11-15T06:43:40.815Z,74.46
2022-11-15T06:46:07.876Z,74.62
2022-11-15T06:48:35.255Z,74.39
2022-11-15T06:51:03.468Z,74.17
2022-11-15T06:53:30.968Z,74.25
2022-11-15T06:56:08.065Z,74.29
2022-11-15T06:58:34.680Z,74.33
2022-11-15T07:01:03.726Z,74.51
2022-11-15T07:03:30.842Z,74.00
2022-11-15T07:06:02.722Z,73.66
2022-11-15T07:08:33.194Z,73.67
2022-11-15T07:11:02.635Z,73.56
2022-11-15T07:13:31.521Z,73.60
2022-11-15T07:15:58.105Z,73.51
2022-11-15T07:18:24.859Z,72.02
2022-11-15T07:20:51.269Z,71.39
2022-11-15T07:23:17.692Z,69.26
2022-11-15T07:25:44.287Z,67.96
2022-11-15T07:28:11.115Z,67.57
2022-11-15T07:30:41.275Z,65.75
2022-11-15T07:33:11.405Z,65.46
2022-11-15T07:35:37.905Z,65.62
2022-11-15T07:38:04.674Z,65.42
2022-11-15T07:40:32.891Z,64.10
2022-11-15T07:43:03.972Z,63.90
2022-11-15T07:45:30.662Z,63.49
2022-11-15T07:47:57.616Z,62.42
2022-11-15T07:50:25.110Z,60.85
2022-11-15T07:52:56.306Z,61.59
2022-11-15T07:55:24.015Z,60.08
2022-11-15T07:57:50.690Z,60.31
2022-11-15T08:00:17.594Z,59.75
2022-11-15T08:02:44.101Z,59.89
2022-11-15T08:05:10.713Z,60.11
2022-11-15T08:07:38.971Z,58.95
2022-11-15T08:10:06.934Z,59.70
2022-11-15T08:12:33.400Z,58.79
2022-11-15T08:14:59.844Z,58.32
2022-11-15T08:17:26.325Z,58.14
2022-11-15T08:19:52.832Z,56.87
2022-11-15T08:22:19.624Z,57.59
2022-11-15T08:24:46.037Z,57.80
2022-11-15T08:27:18.596Z,57.18
2022-11-15T08:29:45.997Z,57.95
2022-11-15T08:32:12.827Z,56.98
2022-11-15T08:34:39.496Z,57.06
2022-11-15T08:37:06.110Z,58.07
2022-11-15T08:39:33.045Z,57.36
2022-11-15T08:42:00.230Z,56.54
2022-11-15T08:44:26.847Z,56.67
2022-11-15T08:46:53.333Z,54.66
2022-11-15T08:49:19.733Z,55.08
2022-11-15T08:51:46.157Z,54.58
2022-11-15T08:54:12.561Z,54.59
2022-11-15T08:56:39.034Z,54.13
2022-11-15T08:59:05.441Z,53.01
2022-11-15T09:01:33.411Z,52.75
2022-11-15T09:03:59.883Z,52.80
2022-11-15T09:06:26.326Z,52.96
2022-11-15T09:08:52.876Z,52.91
2022-11-15T09:11:21.339Z,54.09
2022-11-15T09:13:47.876Z,52.22
2022-11-15T09:16:16.142Z,53.69
2022-11-15T09:18:42.521Z,53.63
2022-11-15T09:21:10.055Z,54.64
2022-11-15T09:23:36.834Z,55.72
2022-11-15T09:26:05.619Z,55.20
2022-11-15T09:28:33.955Z,55.63
2022-11-15T09:31:02.905Z,55.47
2022-11-15T09:33:30.122Z,54.07
2022-11-15T09:36:05.846Z,55.07
2022-11-15T09:38:33.192Z,55.48
2022-11-15T09:41:39.598Z,55.30
2022-11-15T09:44:28.812Z,56.01
2022-11-15T09:47:26.303Z,55.94
2022-11-15T09:49:59.533Z,55.59
2022-11-15T09:52:26.242Z,56.20
2022-11-15T09:54:55.512Z,57.08
2022-11-15T09:57:33.428Z,57.23
2022-11-15T10:00:47.672Z,56.60
2022-11-15T10:03:20.132Z,56.96
2022-11-15T10:05:48.647Z,56.69
2022-11-15T10:08:29.792Z,56.57
2022-11-15T10:11:30.125Z,56.82
2022-11-15T10:13:51.474Z,56.28
2022-11-15T10:16:36.442Z,56.19
2022-11-15T10:19:41.565Z,56.49
2022-11-15T10:22:51.730Z,56.49
2022-11-15T10:25:20.827Z,56.49
2022-11-15T10:27:55.662Z,56.48
2022-11-15T10:30:23.105Z,56.24
2022-11-15T10:32:50.527Z,56.71
2022-11-15T10:35:43.632Z,56.67
2022-11-15T10:38:12.347Z,56.04
2022-11-15T10:40:41.057Z,56.18
2022-11-15T10:43:10.593Z,55.74
2022-11-15T10:45:38.280Z,56.17
2022-11-15T10:48:13.898Z,56.12
2022-11-15T10:50:51.005Z,56.10
2022-11-15T10:53:40.635Z,55.88
2022-11-15T10:56:12.749Z,56.24
2022-11-15T10:58:52.486Z,55.68
2022-11-15T11:01:22.929Z,56.57
2022-11-15T11:04:22.165Z,56.10
2022-11-15T11:06:49.406Z,56.44
2022-11-15T11:09:36.515Z,55.51
2022-11-15T11:12:05.467Z,56.33
2022-11-15T11:14:34.915Z,56.72
2022-11-15T11:17:22.823Z,57.00
2022-11-15T11:20:01.519Z,57.29
2022-11-15T11:22:41.436Z,56.30
2022-11-15T11:25:33.218Z,56.70
2022-11-15T11:28:08.729Z,56.90
2022-11-15T11:30:58.224Z,57.30
2022-11-15T11:33:37.085Z,56.85
2022-11-15T11:36:20.408Z,56.96
2022-11-15T11:39:11.924Z,56.75
2022-11-15T11:41:44.466Z,56.45
2022-11-15T11:44:34.627Z,56.02
2022-11-15T11:47:02.772Z,56.83
2022-11-15T11:49:35.779Z,56.72
2022-11-15T11:52:31.024Z,56.50
2022-11-15T11:55:03.494Z,56.01
2022-11-15T11:57:37.275Z,55.88
2022-11-15T12:00:16.758Z,55.86
2022-11-15T12:02:50.774Z,56.03
2022-11-15T12:05:57.549Z,55.51
2022-11-15T12:08:31.848Z,54.53
2022-11-15T12:11:24.830Z,55.15
2022-11-15T12:13:57.876Z,55.37
2022-11-15T12:16:30.242Z,55.18
2022-11-15T12:19:03.370Z,53.39
2022-11-15T12:21:40.649Z,54.53
2022-11-15T12:24:38.219Z,53.74
2022-11-15T12:27:20.554Z,53.35
2022-11-15T12:29:53.842Z,53.80
2022-11-15T12:32:37.014Z,53.39
2022-11-15T12:35:07.397Z,53.20
2022-11-15T12:37:36.890Z,53.22
2022-11-15T12:40:22.323Z,53.13
2022-11-15T12:43:13.847Z,53.42
2022-11-15T12:45:43.355Z,53.87
2022-11-15T12:48:36.273Z,53.47
2022-11-15T12:51:02.946Z,54.73
2022-11-15T12:53:34.474Z,55.27
2022-11-15T12:56:03.936Z,56.22
2022-11-15T12:58:51.292Z,56.77
2022-11-15T13:01:39.002Z,56.48
2022-11-15T13:04:29.895Z,56.59
2022-11-15T13:07:01.173Z,57.17
2022-11-15T13:09:30.726Z,57.14
2022-11-15T13:11:59.425Z,57.06
2022-11-15T13:14:38.045Z,57.22
2022-11-15T13:17:20.003Z,56.95
2022-11-15T13:19:56.370Z,58.03
2022-11-15T13:22:41.324Z,57.24
2022-11-15T13:25:21.413Z,57.77
2022-11-15T13:27:50.175Z,57.75
2022-11-15T13:30:26.191Z,57.97
2022-11-15T13:32:53.744Z,58.48
2022-11-15T13:35:32.534Z,59.00
2022-11-15T13:38:04.827Z,58.69
2022-11-15T13:40:37.076Z,59.00
2022-11-15T13:43:36.482Z,59.72
2022-11-15T13:46:23.944Z,59.68
2022-11-15T13:49:01.049Z,59.26
2022-11-15T13:51:31.072Z,60.34
2022-11-15T13:54:03.587Z,61.55
2022-11-15T13:56:33.090Z,61.42
2022-11-15T13:58:59.599Z,62.29
2022-11-15T14:01:29.863Z,63.93
2022-11-15T14:04:01.495Z,63.62
2022-11-15T14:06:30.705Z,63.32
2022-11-15T14:09:12.095Z,64.06
2022-11-15T14:11:54.214Z,63.82
2022-11-15T14:14:23.896Z,63.97
2022-11-15T14:16:53.594Z,64.79
2022-11-15T14:19:26.011Z,65.63
2022-11-15T14:22:22.851Z,66.99
2022-11-15T14:25:18.710Z,66.96
2022-11-15T14:28:05.886Z,68.30
2022-11-15T14:30:32.369Z,68.91
2022-11-15T14:32:58.890Z,69.69
2022-11-15T14:35:25.540Z,70.05
2022-11-15T14:37:52.032Z,70.27
2022-11-15T14:40:21.533Z,70.85
2022-11-15T14:42:49.708Z,71.26
2022-11-15T14:45:21.485Z,72.05
2022-11-15T14:47:48.840Z,72.60
2022-11-15T14:50:18.279Z,71.90
2022-11-15T14:52:45.876Z,71.84
2022-11-15T14:55:19.235Z,72.18
2022-11-15T14:57:46.423Z,73.06
2022-11-15T15:00:13.908Z,73.60
2022-11-15T15:02:42.653Z,72.75
2022-11-15T15:05:33.369Z,72.71
2022-11-15T15:08:00.292Z,73.76
2022-11-15T15:10:40.971Z,74.23
2022-11-15T15:13:17.878Z,75.67
2022-11-15T15:15:44.813Z,77.02
2022-11-15T15:18:12.278Z,76.70
2022-11-15T15:20:40.939Z,77.01
2022-11-15T15:23:16.706Z,78.42
2022-11-15T15:25:44.534Z,78.86
2022-11-15T15:28:10.985Z,79.17
2022-11-15T15:30:37.471Z,80.48
2022-11-15T15:33:04.080Z,79.93
2022-11-15T15:35:33.870Z,80.71
2022-11-15T15:38:00.805Z,81.82
2022-11-15T15:40:30.446Z,81.53
2022-11-15T15:42:56.927Z,83.36
2022-11-15T15:45:23.390Z,82.94
2022-11-15T15:47:51.050Z,83.01
2022-11-15T15:50:34.526Z,84.75
2022-11-15T15:53:02.612Z,85.30
2022-11-15T15:55:29.684Z,84.74
2022-11-15T15:57:56.502Z,85.14
2022-11-15T16:00:25.621Z,84.91
2022-11-15T16:02:53.306Z,84.69
2022-11-15T16:05:19.966Z,85.34
2022-11-15T16:07:48.283Z,84.13
2022-11-15T16:10:26.841Z,85.18
2022-11-15T16:12:54.409Z,85.34
2022-11-15T16:15:22.368Z,85.36
2022-11-15T16:17:52.055Z,86.06
2022-11-15T16:20:40.394Z,85.84
2022-11-15T16:23:10.226Z,85.85
2022-11-15T16:25:54.072Z,86.25
2022-11-15T16:28:22.033Z,85.82
2022-11-15T16:30:53.871Z,86.25
2022-11-15T16:33:23.281Z,85.37
2022-11-15T16:35:49.699Z,86.75
2022-11-15T16:38:17.145Z,87.42
2022-11-15T16:40:43.799Z,86.79
2022-11-15T16:43:11.035Z,86.70
2022-11-15T16:45:37.850Z,86.99
2022-11-15T16:48:05.001Z,85.93
2022-11-15T16:50:40.624Z,86.46
2022-11-15T16:53:07.347Z,86.88
2022-11-15T16:55:33.815Z,87.07
2022-11-15T16:58:01.781Z,85.37
2022-11-15T17:00:31.153Z,85.11
2022-11-15T17:02:57.892Z,84.94
2022-11-15T17:05:27.161Z,84.47
2022-11-15T17:07:56.324Z,84.33
2022-11-15T17:10:24.488Z,83.82
2022-11-15T17:12:51.715Z,83.83
2022-11-15T17:15:19.126Z,83.38
2022-11-15T17:17:52.883Z,83.51
2022-11-15T17:20:21.362Z,82.79
2022-11-15T17:22:50.524Z,82.27
2022-11-15T17:25:16.970Z,81.11
2022-11-15T17:27:43.669Z,80.32
2022-11-15T17:30:12.872Z,79.82
2022-11-15T17:32:39.307Z,79.09
2022-11-15T17:35:14.908Z,78.81
2022-11-15T17:37:44.233Z,79.02
2022-11-15T17:40:11.446Z,78.31
2022-11-15T17:42:40.790Z,77.93
2022-11-15T17:45:10.136Z,77.09
2022-11-15T17:47:37.223Z,77.47
2022-11-15T17:50:03.969Z,77.11
2022-11-15T17:52:30.657Z,77.24
2022-11-15T17:54:57.068Z,77.19
2022-11-15T17:57:23.492Z,76.58
2022-11-15T17:59:49.938Z,76.54
2022-11-15T18:02:16.457Z,76.30
2022-11-15T18:04:42.863Z,76.36
2022-11-15T18:07:11.658Z,76.39
2022-11-15T18:09:42.318Z,75.97
2022-11-15T18:12:09.155Z,76.33
2022-11-15T18:14:35.782Z,76.13
2022-11-15T18:17:02.177Z,76.21
2022-11-15T18:19:28.567Z,76.28
2022-11-15T18:21:58.884Z,76.23
2022-11-15T18:24:28.412Z,76.38
2022-11-15T18:26:56.935Z,76.23
2022-11-15T18:29:24.597Z,76.22
2022-11-15T18:31:54.979Z,76.16
2022-11-15T18:34:33.361Z,76.52
2022-11-15T18:37:01.332Z,76.67
2022-11-15T18:39:30.269Z,76.82
2022-11-15T18:41:57.920Z,77.68
2022-11-15T18:44:24.365Z,77.33
2022-11-15T18:46:51.050Z,77.80
2022-11-15T18:49:19.586Z,77.79
2022-11-15T18:51:46.082Z,77.73
2022-11-15T18:54:14.676Z,77.25
2022-11-15T18:56:44.531Z,76.85
2022-11-15T18:59:11.525Z,77.39
2022-11-15T19:01:39.961Z,77.51
2022-11-15T19:04:18.588Z,76.84
2022-11-15T19:06:49.394Z,76.61
2022-11-15T19:09:17.956Z,76.01
2022-11-15T19:11:45.350Z,76.01
2022-11-15T19:14:14.546Z,75.93
2022-11-15T19:16:46.104Z,76.15
2022-11-15T19:19:17.787Z,75.78
2022-11-15T19:21:44.598Z,75.63
2022-11-15T19:24:11.028Z,75.37
2022-11-15T19:26:38.378Z,75.36
2022-11-15T19:29:06.416Z,75.51
2022-11-15T19:31:33.277Z,75.47
2022-11-15T19:34:01.533Z,75.13
2022-11-15T19:36:33.302Z,74.87
2022-11-15T19:39:05.122Z,75.00
2022-11-15T19:41:32.162Z,75.09
2022-11-15T19:43:58.580Z,75.19
2022-11-15T19:46:26.851Z,75.05
2022-11-15T19:48:54.004Z,75.12
2022-11-15T19:51:25.964Z,75.71
2022-11-15T19:53:54.064Z,75.57
2022-11-15T19:56:21.720Z,75.67
2022-11-15T19:58:53.882Z,76.13
2022-11-15T20:01:24.058Z,76.77
2022-11-15T20:03:53.946Z,76.71
2022-11-15T20:06:24.378Z,77.62
2022-11-15T20:08:51.352Z,77.78
2022-11-15T20:11:18.761Z,78.99
2022-11-15T20:13:45.862Z,78.88
2022-11-15T20:16:20.983Z,78.82
2022-11-15T20:18:48.761Z,79.23
2022-11-15T20:21:15.287Z,80.26
2022-11-15T20:23:42.517Z,79.42
2022-11-15T20:26:10.458Z,79.29
2022-11-15T20:28:38.948Z,79.48
2022-11-15T20:31:05.979Z,79.94
2022-11-15T20:33:32.448Z,79.82
2022-11-15T20:36:03.214Z,79.88
2022-11-15T20:38:29.710Z,79.59
2022-11-15T20:41:00.135Z,79.87
2022-11-15T20:43:27.113Z,79.28
2022-11-15T20:45:53.815Z,80.03
2022-11-15T20:48:20.249Z,80.30
2022-11-15T20:50:48.739Z,81.06
2022-11-15T20:53:16.628Z,80.54
2022-11-15T20:55:47.583Z,80.73
2022-11-15T20:58:15.217Z,81.26
2022-11-15T21:00:43.175Z,82.01
2022-11-15T21:03:09.753Z,81.82
2022-11-15T21:05:41.080Z,81.58
2022-11-15T21:08:08.190Z,81.19
2022-11-15T21:10:53.234Z,80.98
2022-11-15T21:13:27.154Z,80.94
2022-11-15T21:15:59.137Z,81.90
2022-11-15T21:18:25.592Z,81.27
2022-11-15T21:20:58.027Z,81.10
2022-11-15T21:23:24.421Z,81.52
2022-11-15T21:25:55.365Z,81.44
2022-11-15T21:28:21.730Z,81.62
2022-11-15T21:30:59.532Z,82.02
2022-11-15T21:33:29.618Z,82.50
2022-11-15T21:35:57.388Z,82.19
2022-11-15T21:38:24.729Z,82.62
2022-11-15T21:40:52.508Z,83.06
2022-11-15T21:43:20.116Z,82.36
2022-11-15T21:46:01.122Z,82.84
2022-11-15T21:48:32.670Z,82.71
2022-11-15T21:51:00.564Z,82.90
2022-11-15T21:53:27.993Z,82.79
2022-11-15T21:55:54.990Z,82.48
2022-11-15T21:58:22.392Z,82.30
2022-11-15T22:01:07.839Z,82.36
2022-11-15T22:03:34.939Z,83.09
2022-11-15T22:06:01.750Z,82.89
2022-11-15T22:08:28.147Z,83.49
2022-11-15T22:10:56.664Z,83.69
2022-11-15T22:13:24.366Z,83.59
2022-11-15T22:15:54.087Z,83.84
2022-11-15T22:18:26.617Z,84.33
2022-11-15T22:20:59.037Z,85.23
2022-11-15T22:23:27.751Z,85.39
2022-11-15T22:25:57.101Z,85.11
2022-11-15T22:28:24.224Z,86.10
2022-11-15T22:30:55.599Z,86.42
2022-11-15T22:33:24.359Z,85.74
2022-11-15T22:35:51.206Z,85.27
2022-11-15T22:38:18.222Z,86.31
2022-11-15T22:40:47.337Z,87.15
2022-11-15T22:43:18.927Z,86.19
2022-11-15T22:45:52.524Z,86.90
2022-11-15T22:48:20.781Z,86.61
2022-11-15T22:50:47.434Z,86.86
2022-11-15T22:53:14.015Z,85.88
2022-11-15T22:55:41.405Z,85.43
2022-11-15T22:58:10.954Z,85.18
2022-11-15T23:00:37.469Z,85.12
2022-11-15T23:03:04.280Z,85.66
2022-11-15T23:05:31.971Z,85.60
2022-11-15T23:08:00.871Z,85.98
2022-11-15T23:10:45.953Z,86.13
2022-11-15T23:13:16.486Z,86.49
2022-11-15T23:16:08.731Z,85.98
2022-11-15T23:18:37.339Z,86.13
2022-11-15T23:21:11.421Z,85.77
2022-11-15T23:23:38.711Z,85.66
2022-11-15T23:26:05.582Z,86.52
2022-11-15T23:28:33.567Z,85.46
2022-11-15T23:31:26.446Z,84.94
2022-11-15T23:33:59.084Z,84.68
2022-11-15T23:36:26.799Z,84.50
2022-11-15T23:38:56.574Z,84.76
2022-11-15T23:41:23.979Z,83.94
2022-11-15T23:43:51.517Z,84.06
2022-11-15T23:46:18.089Z,83.90
2022-11-15T23:48:44.513Z,84.56
2022-11-15T23:51:11.242Z,84.37
2022-11-15T23:53:37.825Z,84.72
2022-11-15T23:56:11.847Z,84.37
2022-11-15T23:58:41.181Z,84.65
